sensor_id;sensor_type;location;lat;lon;timestamp;P1;durP1;ratioP1;P2;durP2;ratioP2
21215;SDS011;10765;50.954;5.322;2022-10-13T00:01:26;10.93;;;9.17;;
21215;SDS011;10765;50.954;5.322;2022-10-13T00:03:53;10.80;;;8.60;;
21215;SDS011;10765;50.954;5.322;2022-10-13T00:06:21;16.33;;;9.23;;
21215;SDS011;10765;50.954;5.322;2022-10-13T00:08:49;10.93;;;8.53;;
21215;SDS011;10765;50.954;5.322;2022-10-13T00:11:18;12.73;;;8.63;;
21215;SDS011;10765;50.954;5.322;2022-10-13T00:13:47;14.80;;;9.70;;
21215;SDS011;10765;50.954;5.322;2022-10-13T00:16:15;9.60;;;8.57;;
21215;SDS011;10765;50.954;5.322;2022-10-13T00:18:44;10.83;;;8.73;;
21215;SDS011;10765;50.954;5.322;2022-10-13T00:21:12;12.87;;;8.90;;
21215;SDS011;10765;50.954;5.322;2022-10-13T00:23:40;12.03;;;8.93;;
21215;SDS011;10765;50.954;5.322;2022-10-13T00:26:09;11.90;;;8.80;;
21215;SDS011;10765;50.954;5.322;2022-10-13T00:28:38;12.23;;;9.13;;
21215;SDS011;10765;50.954;5.322;2022-10-13T00:31:13;12.50;;;9.03;;
21215;SDS011;10765;50.954;5.322;2022-10-13T00:33:41;15.77;;;9.80;;
21215;SDS011;10765;50.954;5.322;2022-10-13T00:36:08;12.83;;;9.13;;
21215;SDS011;10765;50.954;5.322;2022-10-13T00:38:35;12.90;;;8.57;;
21215;SDS011;10765;50.954;5.322;2022-10-13T00:41:02;11.20;;;8.83;;
21215;SDS011;10765;50.954;5.322;2022-10-13T00:46:16;15.33;;;9.47;;
21215;SDS011;10765;50.954;5.322;2022-10-13T00:48:44;12.53;;;9.33;;
21215;SDS011;10765;50.954;5.322;2022-10-13T00:51:14;15.30;;;9.93;;
21215;SDS011;10765;50.954;5.322;2022-10-13T00:53:43;14.97;;;9.67;;
21215;SDS011;10765;50.954;5.322;2022-10-13T00:56:12;14.23;;;9.27;;
21215;SDS011;10765;50.954;5.322;2022-10-13T00:58:42;17.37;;;9.50;;
21215;SDS011;10765;50.954;5.322;2022-10-13T01:01:11;10.87;;;9.03;;
21215;SDS011;10765;50.954;5.322;2022-10-13T01:03:39;14.03;;;9.43;;
21215;SDS011;10765;50.954;5.322;2022-10-13T01:06:06;12.93;;;9.93;;
21215;SDS011;10765;50.954;5.322;2022-10-13T01:08:33;11.30;;;9.50;;
21215;SDS011;10765;50.954;5.322;2022-10-13T01:11:04;9.97;;;8.97;;
21215;SDS011;10765;50.954;5.322;2022-10-13T01:13:43;14.63;;;10.50;;
21215;SDS011;10765;50.954;5.322;2022-10-13T01:16:18;11.77;;;9.13;;
21215;SDS011;10765;50.954;5.322;2022-10-13T01:18:51;12.23;;;9.50;;
21215;SDS011;10765;50.954;5.322;2022-10-13T01:21:26;14.33;;;9.03;;
21215;SDS011;10765;50.954;5.322;2022-10-13T01:27:07;12.63;;;9.60;;
21215;SDS011;10765;50.954;5.322;2022-10-13T01:30:05;10.13;;;9.07;;
21215;SDS011;10765;50.954;5.322;2022-10-13T01:35:37;11.80;;;9.47;;
21215;SDS011;10765;50.954;5.322;2022-10-13T01:38:24;15.23;;;9.23;;
21215;SDS011;10765;50.954;5.322;2022-10-13T01:40:59;15.77;;;9.87;;
21215;SDS011;10765;50.954;5.322;2022-10-13T01:43:31;15.80;;;9.87;;
21215;SDS011;10765;50.954;5.322;2022-10-13T01:46:04;14.17;;;9.93;;
21215;SDS011;10765;50.954;5.322;2022-10-13T01:48:35;14.20;;;9.13;;
21215;SDS011;10765;50.954;5.322;2022-10-13T01:51:05;13.13;;;10.10;;
21215;SDS011;10765;50.954;5.322;2022-10-13T01:53:34;16.67;;;10.70;;
21215;SDS011;10765;50.954;5.322;2022-10-13T01:56:01;12.23;;;10.10;;
21215;SDS011;10765;50.954;5.322;2022-10-13T01:58:29;14.80;;;10.30;;
21215;SDS011;10765;50.954;5.322;2022-10-13T02:01:05;13.67;;;10.33;;
21215;SDS011;10765;50.954;5.322;2022-10-13T02:03:51;13.93;;;10.53;;
21215;SDS011;10765;50.954;5.322;2022-10-13T02:06:27;12.23;;;9.90;;
21215;SDS011;10765;50.954;5.322;2022-10-13T02:08:59;12.10;;;9.57;;
21215;SDS011;10765;50.954;5.322;2022-10-13T02:11:30;14.03;;;9.37;;
21215;SDS011;10765;50.954;5.322;2022-10-13T02:13:58;11.67;;;10.27;;
21215;SDS011;10765;50.954;5.322;2022-10-13T02:16:30;13.27;;;9.90;;
21215;SDS011;10765;50.954;5.322;2022-10-13T02:19:02;14.27;;;9.93;;
21215;SDS011;10765;50.954;5.322;2022-10-13T02:21:30;14.20;;;10.13;;
21215;SDS011;10765;50.954;5.322;2022-10-13T02:23:59;15.90;;;10.40;;
21215;SDS011;10765;50.954;5.322;2022-10-13T02:26:26;12.23;;;10.07;;
21215;SDS011;10765;50.954;5.322;2022-10-13T02:28:54;16.90;;;10.57;;
21215;SDS011;10765;50.954;5.322;2022-10-13T02:31:21;13.60;;;10.00;;
21215;SDS011;10765;50.954;5.322;2022-10-13T02:33:50;12.40;;;10.13;;
21215;SDS011;10765;50.954;5.322;2022-10-13T02:36:16;12.27;;;9.30;;
21215;SDS011;10765;50.954;5.322;2022-10-13T02:38:43;13.60;;;10.50;;
21215;SDS011;10765;50.954;5.322;2022-10-13T02:41:10;13.67;;;9.90;;
21215;SDS011;10765;50.954;5.322;2022-10-13T02:43:37;16.10;;;10.17;;
21215;SDS011;10765;50.954;5.322;2022-10-13T02:46:04;13.90;;;9.43;;
21215;SDS011;10765;50.954;5.322;2022-10-13T02:48:31;13.27;;;10.40;;
21215;SDS011;10765;50.954;5.322;2022-10-13T02:50:59;12.10;;;10.03;;
21215;SDS011;10765;50.954;5.322;2022-10-13T02:53:26;17.07;;;9.80;;
21215;SDS011;10765;50.954;5.322;2022-10-13T02:55:53;12.80;;;10.13;;
21215;SDS011;10765;50.954;5.322;2022-10-13T02:58:20;14.20;;;10.80;;
21215;SDS011;10765;50.954;5.322;2022-10-13T03:00:46;14.20;;;10.20;;
21215;SDS011;10765;50.954;5.322;2022-10-13T03:03:13;12.77;;;9.63;;
21215;SDS011;10765;50.954;5.322;2022-10-13T03:05:40;12.70;;;9.43;;
21215;SDS011;10765;50.954;5.322;2022-10-13T03:08:08;12.60;;;10.10;;
21215;SDS011;10765;50.954;5.322;2022-10-13T03:10:36;11.57;;;10.03;;
21215;SDS011;10765;50.954;5.322;2022-10-13T03:13:02;14.17;;;10.33;;
21215;SDS011;10765;50.954;5.322;2022-10-13T03:15:29;12.77;;;9.60;;
21215;SDS011;10765;50.954;5.322;2022-10-13T03:17:56;12.30;;;9.63;;
21215;SDS011;10765;50.954;5.322;2022-10-13T03:20:23;14.53;;;9.63;;
21215;SDS011;10765;50.954;5.322;2022-10-13T03:22:50;15.10;;;10.90;;
21215;SDS011;10765;50.954;5.322;2022-10-13T03:25:18;14.10;;;10.43;;
21215;SDS011;10765;50.954;5.322;2022-10-13T03:27:45;12.67;;;9.93;;
21215;SDS011;10765;50.954;5.322;2022-10-13T03:30:12;10.90;;;9.67;;
21215;SDS011;10765;50.954;5.322;2022-10-13T03:32:39;13.53;;;10.13;;
21215;SDS011;10765;50.954;5.322;2022-10-13T03:35:06;14.87;;;10.73;;
21215;SDS011;10765;50.954;5.322;2022-10-13T03:37:33;16.73;;;11.27;;
21215;SDS011;10765;50.954;5.322;2022-10-13T03:40:00;12.53;;;10.67;;
21215;SDS011;10765;50.954;5.322;2022-10-13T03:42:28;14.67;;;10.83;;
21215;SDS011;10765;50.954;5.322;2022-10-13T03:44:55;15.17;;;11.27;;
21215;SDS011;10765;50.954;5.322;2022-10-13T03:47:22;16.97;;;10.63;;
21215;SDS011;10765;50.954;5.322;2022-10-13T03:49:49;16.27;;;11.13;;
21215;SDS011;10765;50.954;5.322;2022-10-13T03:52:19;13.47;;;10.70;;
21215;SDS011;10765;50.954;5.322;2022-10-13T03:54:46;15.47;;;11.37;;
21215;SDS011;10765;50.954;5.322;2022-10-13T03:57:13;17.00;;;11.57;;
21215;SDS011;10765;50.954;5.322;2022-10-13T03:59:41;14.67;;;11.73;;
21215;SDS011;10765;50.954;5.322;2022-10-13T04:02:08;13.97;;;10.87;;
21215;SDS011;10765;50.954;5.322;2022-10-13T04:04:35;12.93;;;10.40;;
21215;SDS011;10765;50.954;5.322;2022-10-13T04:07:03;15.83;;;11.73;;
21215;SDS011;10765;50.954;5.322;2022-10-13T04:09:30;14.50;;;10.93;;
21215;SDS011;10765;50.954;5.322;2022-10-13T04:11:58;15.63;;;11.20;;
21215;SDS011;10765;50.954;5.322;2022-10-13T04:14:25;15.97;;;10.80;;
21215;SDS011;10765;50.954;5.322;2022-10-13T04:16:53;13.27;;;10.70;;
21215;SDS011;10765;50.954;5.322;2022-10-13T04:19:20;15.30;;;11.70;;
21215;SDS011;10765;50.954;5.322;2022-10-13T04:21:47;14.07;;;10.40;;
21215;SDS011;10765;50.954;5.322;2022-10-13T04:24:14;11.37;;;9.53;;
21215;SDS011;10765;50.954;5.322;2022-10-13T04:26:41;32.40;;;12.30;;
21215;SDS011;10765;50.954;5.322;2022-10-13T04:29:10;17.50;;;9.97;;
21215;SDS011;10765;50.954;5.322;2022-10-13T04:31:38;15.80;;;9.80;;
21215;SDS011;10765;50.954;5.322;2022-10-13T04:34:08;14.03;;;10.13;;
21215;SDS011;10765;50.954;5.322;2022-10-13T04:36:35;13.97;;;10.00;;
21215;SDS011;10765;50.954;5.322;2022-10-13T04:39:01;12.67;;;10.00;;
21215;SDS011;10765;50.954;5.322;2022-10-13T04:41:29;17.67;;;10.90;;
21215;SDS011;10765;50.954;5.322;2022-10-13T04:43:56;15.73;;;10.57;;
21215;SDS011;10765;50.954;5.322;2022-10-13T04:46:24;17.40;;;10.50;;
21215;SDS011;10765;50.954;5.322;2022-10-13T04:48:51;11.73;;;9.77;;
21215;SDS011;10765;50.954;5.322;2022-10-13T04:51:21;12.30;;;9.53;;
21215;SDS011;10765;50.954;5.322;2022-10-13T04:53:52;15.33;;;10.00;;
21215;SDS011;10765;50.954;5.322;2022-10-13T04:56:20;15.03;;;9.93;;
21215;SDS011;10765;50.954;5.322;2022-10-13T04:58:47;14.70;;;9.70;;
21215;SDS011;10765;50.954;5.322;2022-10-13T05:01:14;15.07;;;11.07;;
21215;SDS011;10765;50.954;5.322;2022-10-13T05:03:43;13.70;;;12.30;;
21215;SDS011;10765;50.954;5.322;2022-10-13T05:06:13;17.63;;;11.77;;
21215;SDS011;10765;50.954;5.322;2022-10-13T05:08:42;15.57;;;12.43;;
21215;SDS011;10765;50.954;5.322;2022-10-13T05:11:09;15.67;;;12.47;;
21215;SDS011;10765;50.954;5.322;2022-10-13T05:13:36;16.23;;;13.93;;
21215;SDS011;10765;50.954;5.322;2022-10-13T05:16:07;18.67;;;13.23;;
21215;SDS011;10765;50.954;5.322;2022-10-13T05:18:35;16.23;;;13.57;;
21215;SDS011;10765;50.954;5.322;2022-10-13T05:21:06;17.30;;;13.67;;
21215;SDS011;10765;50.954;5.322;2022-10-13T05:23:33;20.20;;;14.27;;
21215;SDS011;10765;50.954;5.322;2022-10-13T05:26:02;22.70;;;15.27;;
21215;SDS011;10765;50.954;5.322;2022-10-13T05:28:30;21.43;;;15.13;;
21215;SDS011;10765;50.954;5.322;2022-10-13T05:31:06;20.63;;;14.43;;
21215;SDS011;10765;50.954;5.322;2022-10-13T05:33:34;23.87;;;15.07;;
21215;SDS011;10765;50.954;5.322;2022-10-13T05:36:02;17.83;;;14.83;;
21215;SDS011;10765;50.954;5.322;2022-10-13T05:38:30;15.80;;;13.40;;
21215;SDS011;10765;50.954;5.322;2022-10-13T05:41:00;31.63;;;15.10;;
21215;SDS011;10765;50.954;5.322;2022-10-13T05:43:29;23.00;;;14.77;;
21215;SDS011;10765;50.954;5.322;2022-10-13T05:45:57;23.57;;;15.23;;
21215;SDS011;10765;50.954;5.322;2022-10-13T05:48:24;21.03;;;15.23;;
21215;SDS011;10765;50.954;5.322;2022-10-13T05:50:51;18.87;;;14.27;;
21215;SDS011;10765;50.954;5.322;2022-10-13T05:53:20;22.60;;;14.87;;
21215;SDS011;10765;50.954;5.322;2022-10-13T05:55:48;24.43;;;15.87;;
21215;SDS011;10765;50.954;5.322;2022-10-13T05:58:17;21.17;;;15.60;;
21215;SDS011;10765;50.954;5.322;2022-10-13T06:00:44;21.40;;;15.23;;
21215;SDS011;10765;50.954;5.322;2022-10-13T06:03:12;20.23;;;14.20;;
21215;SDS011;10765;50.954;5.322;2022-10-13T06:05:41;16.47;;;14.33;;
21215;SDS011;10765;50.954;5.322;2022-10-13T06:08:11;31.60;;;15.57;;
21215;SDS011;10765;50.954;5.322;2022-10-13T06:10:38;20.40;;;15.37;;
21215;SDS011;10765;50.954;5.322;2022-10-13T06:13:06;21.80;;;15.77;;
21215;SDS011;10765;50.954;5.322;2022-10-13T06:15:34;18.87;;;14.07;;
21215;SDS011;10765;50.954;5.322;2022-10-13T06:18:01;15.97;;;13.70;;
21215;SDS011;10765;50.954;5.322;2022-10-13T06:20:33;18.30;;;14.27;;
21215;SDS011;10765;50.954;5.322;2022-10-13T06:23:00;27.80;;;15.20;;
21215;SDS011;10765;50.954;5.322;2022-10-13T06:25:26;20.50;;;14.70;;
21215;SDS011;10765;50.954;5.322;2022-10-13T06:27:54;18.57;;;13.43;;
21215;SDS011;10765;50.954;5.322;2022-10-13T06:30:22;19.60;;;14.40;;
21215;SDS011;10765;50.954;5.322;2022-10-13T06:32:50;24.57;;;14.63;;
21215;SDS011;10765;50.954;5.322;2022-10-13T06:35:19;24.40;;;14.27;;
21215;SDS011;10765;50.954;5.322;2022-10-13T06:37:46;24.07;;;14.33;;
21215;SDS011;10765;50.954;5.322;2022-10-13T06:40:13;22.57;;;13.63;;
21215;SDS011;10765;50.954;5.322;2022-10-13T06:42:40;20.43;;;13.57;;
21215;SDS011;10765;50.954;5.322;2022-10-13T06:45:07;19.33;;;14.00;;
21215;SDS011;10765;50.954;5.322;2022-10-13T06:47:34;21.17;;;14.17;;
21215;SDS011;10765;50.954;5.322;2022-10-13T06:50:02;26.23;;;14.20;;
21215;SDS011;10765;50.954;5.322;2022-10-13T06:52:30;18.27;;;13.30;;
21215;SDS011;10765;50.954;5.322;2022-10-13T06:54:56;21.10;;;13.80;;
21215;SDS011;10765;50.954;5.322;2022-10-13T06:57:23;26.07;;;13.43;;
21215;SDS011;10765;50.954;5.322;2022-10-13T06:59:50;24.27;;;13.03;;
21215;SDS011;10765;50.954;5.322;2022-10-13T07:02:18;47.73;;;15.70;;
21215;SDS011;10765;50.954;5.322;2022-10-13T07:04:45;40.90;;;14.37;;
21215;SDS011;10765;50.954;5.322;2022-10-13T07:07:13;18.43;;;12.90;;
21215;SDS011;10765;50.954;5.322;2022-10-13T07:09:40;20.97;;;13.23;;
21215;SDS011;10765;50.954;5.322;2022-10-13T07:12:07;20.50;;;12.83;;
21215;SDS011;10765;50.954;5.322;2022-10-13T07:14:34;18.00;;;12.63;;
21215;SDS011;10765;50.954;5.322;2022-10-13T07:17:01;18.00;;;11.93;;
21215;SDS011;10765;50.954;5.322;2022-10-13T07:19:28;17.90;;;12.73;;
21215;SDS011;10765;50.954;5.322;2022-10-13T07:21:55;18.20;;;12.90;;
21215;SDS011;10765;50.954;5.322;2022-10-13T07:24:23;15.53;;;11.80;;
21215;SDS011;10765;50.954;5.322;2022-10-13T07:26:51;17.37;;;12.10;;
21215;SDS011;10765;50.954;5.322;2022-10-13T07:29:18;18.80;;;12.50;;
21215;SDS011;10765;50.954;5.322;2022-10-13T07:31:45;17.03;;;11.70;;
21215;SDS011;10765;50.954;5.322;2022-10-13T07:34:12;83.87;;;17.33;;
21215;SDS011;10765;50.954;5.322;2022-10-13T07:36:40;26.43;;;12.90;;
21215;SDS011;10765;50.954;5.322;2022-10-13T07:39:07;16.27;;;11.50;;
21215;SDS011;10765;50.954;5.322;2022-10-13T07:41:35;17.77;;;11.83;;
21215;SDS011;10765;50.954;5.322;2022-10-13T07:44:03;16.53;;;11.63;;
21215;SDS011;10765;50.954;5.322;2022-10-13T07:46:30;13.53;;;11.00;;
21215;SDS011;10765;50.954;5.322;2022-10-13T07:48:57;22.13;;;11.40;;
21215;SDS011;10765;50.954;5.322;2022-10-13T07:51:24;17.40;;;10.40;;
21215;SDS011;10765;50.954;5.322;2022-10-13T07:53:50;15.93;;;10.40;;
21215;SDS011;10765;50.954;5.322;2022-10-13T07:56:17;14.70;;;10.80;;
21215;SDS011;10765;50.954;5.322;2022-10-13T07:58:46;15.27;;;10.10;;
21215;SDS011;10765;50.954;5.322;2022-10-13T08:01:13;13.77;;;10.33;;
21215;SDS011;10765;50.954;5.322;2022-10-13T08:03:41;24.27;;;11.33;;
21215;SDS011;10765;50.954;5.322;2022-10-13T08:06:09;16.20;;;10.47;;
21215;SDS011;10765;50.954;5.322;2022-10-13T08:08:36;13.17;;;10.50;;
21215;SDS011;10765;50.954;5.322;2022-10-13T08:11:05;13.70;;;10.20;;
21215;SDS011;10765;50.954;5.322;2022-10-13T08:13:33;13.43;;;9.77;;
21215;SDS011;10765;50.954;5.322;2022-10-13T08:16:02;14.00;;;10.10;;
21215;SDS011;10765;50.954;5.322;2022-10-13T08:18:30;13.70;;;10.20;;
21215;SDS011;10765;50.954;5.322;2022-10-13T08:20:58;26.43;;;11.23;;
21215;SDS011;10765;50.954;5.322;2022-10-13T08:23:26;16.23;;;10.00;;
21215;SDS011;10765;50.954;5.322;2022-10-13T08:25:53;46.90;;;12.73;;
21215;SDS011;10765;50.954;5.322;2022-10-13T08:28:21;16.73;;;10.43;;
21215;SDS011;10765;50.954;5.322;2022-10-13T08:30:50;14.83;;;9.47;;
21215;SDS011;10765;50.954;5.322;2022-10-13T08:33:19;18.40;;;9.10;;
21215;SDS011;10765;50.954;5.322;2022-10-13T08:35:46;34.30;;;10.40;;
21215;SDS011;10765;50.954;5.322;2022-10-13T08:38:13;12.53;;;9.33;;
21215;SDS011;10765;50.954;5.322;2022-10-13T08:40:40;13.90;;;8.77;;
21215;SDS011;10765;50.954;5.322;2022-10-13T08:43:13;9.90;;;8.77;;
21215;SDS011;10765;50.954;5.322;2022-10-13T08:45:42;12.10;;;9.30;;
21215;SDS011;10765;50.954;5.322;2022-10-13T08:48:10;10.70;;;8.20;;
21215;SDS011;10765;50.954;5.322;2022-10-13T08:50:44;12.23;;;8.23;;
21215;SDS011;10765;50.954;5.322;2022-10-13T08:53:17;18.83;;;8.07;;
21215;SDS011;10765;50.954;5.322;2022-10-13T08:55:48;13.53;;;8.13;;
21215;SDS011;10765;50.954;5.322;2022-10-13T08:58:19;10.67;;;8.23;;
21215;SDS011;10765;50.954;5.322;2022-10-13T09:00:50;12.13;;;8.67;;
21215;SDS011;10765;50.954;5.322;2022-10-13T09:03:19;20.73;;;8.90;;
21215;SDS011;10765;50.954;5.322;2022-10-13T09:05:55;11.00;;;7.63;;
21215;SDS011;10765;50.954;5.322;2022-10-13T09:08:27;13.60;;;8.47;;
21215;SDS011;10765;50.954;5.322;2022-10-13T09:10:59;14.30;;;8.53;;
21215;SDS011;10765;50.954;5.322;2022-10-13T09:13:28;10.43;;;8.00;;
21215;SDS011;10765;50.954;5.322;2022-10-13T09:15:56;11.33;;;8.13;;
21215;SDS011;10765;50.954;5.322;2022-10-13T09:18:26;11.13;;;8.20;;
21215;SDS011;10765;50.954;5.322;2022-10-13T09:21:08;12.17;;;8.17;;
21215;SDS011;10765;50.954;5.322;2022-10-13T09:23:36;13.47;;;9.33;;
21215;SDS011;10765;50.954;5.322;2022-10-13T09:26:05;11.20;;;8.80;;
21215;SDS011;10765;50.954;5.322;2022-10-13T09:28:34;14.47;;;9.23;;
21215;SDS011;10765;50.954;5.322;2022-10-13T09:31:02;11.73;;;8.83;;
21215;SDS011;10765;50.954;5.322;2022-10-13T09:33:33;10.90;;;9.30;;
21215;SDS011;10765;50.954;5.322;2022-10-13T09:36:06;12.87;;;9.30;;
21215;SDS011;10765;50.954;5.322;2022-10-13T09:38:39;12.30;;;9.07;;
21215;SDS011;10765;50.954;5.322;2022-10-13T09:41:11;10.67;;;8.97;;
21215;SDS011;10765;50.954;5.322;2022-10-13T09:43:42;12.07;;;9.57;;
21215;SDS011;10765;50.954;5.322;2022-10-13T09:46:23;11.20;;;9.33;;
21215;SDS011;10765;50.954;5.322;2022-10-13T09:48:52;11.37;;;8.80;;
21215;SDS011;10765;50.954;5.322;2022-10-13T09:51:35;9.63;;;8.63;;
21215;SDS011;10765;50.954;5.322;2022-10-13T09:54:05;12.03;;;8.50;;
21215;SDS011;10765;50.954;5.322;2022-10-13T09:56:49;10.83;;;9.13;;
21215;SDS011;10765;50.954;5.322;2022-10-13T09:59:23;11.93;;;9.20;;
21215;SDS011;10765;50.954;5.322;2022-10-13T10:01:57;13.30;;;8.70;;
21215;SDS011;10765;50.954;5.322;2022-10-13T10:04:29;10.53;;;8.97;;
21215;SDS011;10765;50.954;5.322;2022-10-13T10:07:04;11.53;;;8.67;;
21215;SDS011;10765;50.954;5.322;2022-10-13T10:09:37;14.33;;;9.70;;
21215;SDS011;10765;50.954;5.322;2022-10-13T10:12:10;13.37;;;9.77;;
21215;SDS011;10765;50.954;5.322;2022-10-13T10:14:41;14.27;;;10.33;;
21215;SDS011;10765;50.954;5.322;2022-10-13T10:17:11;13.57;;;9.50;;
21215;SDS011;10765;50.954;5.322;2022-10-13T10:19:47;11.93;;;9.10;;
21215;SDS011;10765;50.954;5.322;2022-10-13T10:22:27;12.83;;;10.33;;
21215;SDS011;10765;50.954;5.322;2022-10-13T10:25:02;11.20;;;9.93;;
21215;SDS011;10765;50.954;5.322;2022-10-13T10:27:43;11.53;;;9.33;;
21215;SDS011;10765;50.954;5.322;2022-10-13T10:30:16;12.50;;;9.70;;
21215;SDS011;10765;50.954;5.322;2022-10-13T10:32:46;11.67;;;9.00;;
21215;SDS011;10765;50.954;5.322;2022-10-13T10:35:20;11.67;;;8.90;;
21215;SDS011;10765;50.954;5.322;2022-10-13T10:38:04;10.50;;;8.47;;
21215;SDS011;10765;50.954;5.322;2022-10-13T10:40:46;11.00;;;8.27;;
21215;SDS011;10765;50.954;5.322;2022-10-13T10:43:20;9.77;;;8.37;;
21215;SDS011;10765;50.954;5.322;2022-10-13T10:46:02;8.73;;;7.83;;
21215;SDS011;10765;50.954;5.322;2022-10-13T10:48:37;12.77;;;8.43;;
21215;SDS011;10765;50.954;5.322;2022-10-13T10:51:07;9.07;;;8.03;;
21215;SDS011;10765;50.954;5.322;2022-10-13T10:53:38;10.20;;;8.23;;
21215;SDS011;10765;50.954;5.322;2022-10-13T10:56:16;10.97;;;8.23;;
21215;SDS011;10765;50.954;5.322;2022-10-13T10:58:48;9.17;;;7.97;;
21215;SDS011;10765;50.954;5.322;2022-10-13T11:01:26;13.67;;;8.90;;
21215;SDS011;10765;50.954;5.322;2022-10-13T11:04:03;11.77;;;8.93;;
21215;SDS011;10765;50.954;5.322;2022-10-13T11:06:50;9.20;;;8.30;;
21215;SDS011;10765;50.954;5.322;2022-10-13T11:09:23;11.17;;;9.07;;
21215;SDS011;10765;50.954;5.322;2022-10-13T11:12:43;12.10;;;8.83;;
21215;SDS011;10765;50.954;5.322;2022-10-13T11:15:13;10.13;;;8.20;;
21215;SDS011;10765;50.954;5.322;2022-10-13T11:17:46;13.73;;;8.60;;
21215;SDS011;10765;50.954;5.322;2022-10-13T11:28:52;14.07;;;8.30;;
21215;SDS011;10765;50.954;5.322;2022-10-13T11:31:23;12.90;;;8.60;;
21215;SDS011;10765;50.954;5.322;2022-10-13T11:33:53;9.57;;;8.40;;
21215;SDS011;10765;50.954;5.322;2022-10-13T11:45:39;9.97;;;8.10;;
21215;SDS011;10765;50.954;5.322;2022-10-13T11:51:15;10.43;;;8.17;;
21215;SDS011;10765;50.954;5.322;2022-10-13T11:53:52;10.27;;;8.03;;
21215;SDS011;10765;50.954;5.322;2022-10-13T11:56:31;12.03;;;7.87;;
21215;SDS011;10765;50.954;5.322;2022-10-13T11:58:59;12.50;;;8.23;;
21215;SDS011;10765;50.954;5.322;2022-10-13T12:01:27;10.70;;;7.80;;
21215;SDS011;10765;50.954;5.322;2022-10-13T12:03:54;10.90;;;7.53;;
21215;SDS011;10765;50.954;5.322;2022-10-13T12:06:24;11.67;;;8.10;;
21215;SDS011;10765;50.954;5.322;2022-10-13T12:08:59;11.73;;;7.80;;
21215;SDS011;10765;50.954;5.322;2022-10-13T12:11:28;11.27;;;8.00;;
21215;SDS011;10765;50.954;5.322;2022-10-13T12:13:58;9.73;;;7.23;;
21215;SDS011;10765;50.954;5.322;2022-10-13T12:16:27;11.13;;;7.77;;
21215;SDS011;10765;50.954;5.322;2022-10-13T12:19:04;10.07;;;7.70;;
21215;SDS011;10765;50.954;5.322;2022-10-13T12:21:33;12.40;;;8.00;;
21215;SDS011;10765;50.954;5.322;2022-10-13T12:24:06;9.57;;;7.83;;
21215;SDS011;10765;50.954;5.322;2022-10-13T12:26:35;10.47;;;8.23;;
21215;SDS011;10765;50.954;5.322;2022-10-13T12:29:04;8.70;;;7.50;;
21215;SDS011;10765;50.954;5.322;2022-10-13T12:31:39;13.63;;;8.00;;
21215;SDS011;10765;50.954;5.322;2022-10-13T12:34:15;11.80;;;7.63;;
21215;SDS011;10765;50.954;5.322;2022-10-13T12:36:44;10.37;;;7.83;;
21215;SDS011;10765;50.954;5.322;2022-10-13T12:39:16;11.33;;;8.17;;
21215;SDS011;10765;50.954;5.322;2022-10-13T12:41:44;9.13;;;7.50;;
21215;SDS011;10765;50.954;5.322;2022-10-13T12:44:13;10.23;;;8.47;;
21215;SDS011;10765;50.954;5.322;2022-10-13T12:46:45;9.77;;;8.07;;
21215;SDS011;10765;50.954;5.322;2022-10-13T12:49:18;10.47;;;8.17;;
21215;SDS011;10765;50.954;5.322;2022-10-13T12:51:47;10.67;;;8.57;;
21215;SDS011;10765;50.954;5.322;2022-10-13T12:54:19;13.07;;;9.50;;
21215;SDS011;10765;50.954;5.322;2022-10-13T12:56:49;11.33;;;8.53;;
21215;SDS011;10765;50.954;5.322;2022-10-13T12:59:18;12.40;;;8.67;;
21215;SDS011;10765;50.954;5.322;2022-10-13T13:01:52;13.77;;;9.43;;
21215;SDS011;10765;50.954;5.322;2022-10-13T13:04:28;17.77;;;9.90;;
21215;SDS011;10765;50.954;5.322;2022-10-13T13:09:59;12.17;;;10.47;;
21215;SDS011;10765;50.954;5.322;2022-10-13T13:12:27;14.93;;;11.87;;
21215;SDS011;10765;50.954;5.322;2022-10-13T13:14:58;21.93;;;11.73;;
21215;SDS011;10765;50.954;5.322;2022-10-13T13:17:45;17.30;;;14.03;;
21215;SDS011;10765;50.954;5.322;2022-10-13T13:20:18;20.37;;;16.70;;
21215;SDS011;10765;50.954;5.322;2022-10-13T13:22:47;17.70;;;15.90;;
21215;SDS011;10765;50.954;5.322;2022-10-13T13:25:14;17.40;;;15.37;;
21215;SDS011;10765;50.954;5.322;2022-10-13T13:27:41;18.93;;;15.77;;
21215;SDS011;10765;50.954;5.322;2022-10-13T13:30:08;19.37;;;17.27;;
21215;SDS011;10765;50.954;5.322;2022-10-13T13:32:36;19.17;;;17.10;;
21215;SDS011;10765;50.954;5.322;2022-10-13T13:35:05;21.70;;;16.87;;
21215;SDS011;10765;50.954;5.322;2022-10-13T13:37:33;18.63;;;16.73;;
21215;SDS011;10765;50.954;5.322;2022-10-13T13:40:02;18.23;;;16.33;;
21215;SDS011;10765;50.954;5.322;2022-10-13T13:42:31;17.03;;;15.27;;
21215;SDS011;10765;50.954;5.322;2022-10-13T13:44:58;17.20;;;14.80;;
21215;SDS011;10765;50.954;5.322;2022-10-13T13:47:25;17.07;;;14.37;;
21215;SDS011;10765;50.954;5.322;2022-10-13T13:49:53;17.93;;;15.20;;
21215;SDS011;10765;50.954;5.322;2022-10-13T13:52:24;19.20;;;15.20;;
21215;SDS011;10765;50.954;5.322;2022-10-13T13:54:51;16.50;;;14.90;;
21215;SDS011;10765;50.954;5.322;2022-10-13T13:57:20;19.20;;;15.63;;
21215;SDS011;10765;50.954;5.322;2022-10-13T13:59:47;15.37;;;13.77;;
21215;SDS011;10765;50.954;5.322;2022-10-13T14:02:14;17.23;;;14.30;;
21215;SDS011;10765;50.954;5.322;2022-10-13T14:04:43;17.17;;;13.93;;
21215;SDS011;10765;50.954;5.322;2022-10-13T14:07:10;20.87;;;15.77;;
21215;SDS011;10765;50.954;5.322;2022-10-13T14:09:38;17.30;;;15.00;;
21215;SDS011;10765;50.954;5.322;2022-10-13T14:12:05;16.10;;;13.77;;
21215;SDS011;10765;50.954;5.322;2022-10-13T14:14:32;16.27;;;14.57;;
21215;SDS011;10765;50.954;5.322;2022-10-13T14:16:59;19.67;;;15.63;;
21215;SDS011;10765;50.954;5.322;2022-10-13T14:19:27;19.00;;;14.17;;
21215;SDS011;10765;50.954;5.322;2022-10-13T14:21:54;14.90;;;13.33;;
21215;SDS011;10765;50.954;5.322;2022-10-13T14:24:21;14.73;;;13.20;;
21215;SDS011;10765;50.954;5.322;2022-10-13T14:26:50;14.23;;;12.73;;
21215;SDS011;10765;50.954;5.322;2022-10-13T14:29:16;15.30;;;13.77;;
21215;SDS011;10765;50.954;5.322;2022-10-13T14:31:43;18.37;;;12.30;;
21215;SDS011;10765;50.954;5.322;2022-10-13T14:34:11;14.33;;;12.80;;
21215;SDS011;10765;50.954;5.322;2022-10-13T14:36:38;14.80;;;13.13;;
21215;SDS011;10765;50.954;5.322;2022-10-13T14:39:05;17.07;;;13.93;;
21215;SDS011;10765;50.954;5.322;2022-10-13T14:41:32;16.03;;;13.57;;
21215;SDS011;10765;50.954;5.322;2022-10-13T14:44:00;14.23;;;12.73;;
21215;SDS011;10765;50.954;5.322;2022-10-13T14:46:29;16.17;;;13.90;;
21215;SDS011;10765;50.954;5.322;2022-10-13T14:48:56;16.10;;;12.50;;
21215;SDS011;10765;50.954;5.322;2022-10-13T14:51:24;14.23;;;12.83;;
21215;SDS011;10765;50.954;5.322;2022-10-13T14:53:51;15.70;;;13.10;;
21215;SDS011;10765;50.954;5.322;2022-10-13T14:56:18;17.47;;;12.47;;
21215;SDS011;10765;50.954;5.322;2022-10-13T14:58:51;13.87;;;11.83;;
21215;SDS011;10765;50.954;5.322;2022-10-13T15:01:20;15.23;;;12.37;;
21215;SDS011;10765;50.954;5.322;2022-10-13T15:03:47;17.63;;;12.53;;
21215;SDS011;10765;50.954;5.322;2022-10-13T15:06:15;13.30;;;11.77;;
21215;SDS011;10765;50.954;5.322;2022-10-13T15:08:44;13.60;;;12.00;;
21215;SDS011;10765;50.954;5.322;2022-10-13T15:11:12;12.43;;;10.90;;
21215;SDS011;10765;50.954;5.322;2022-10-13T15:13:41;17.93;;;16.30;;
21215;SDS011;10765;50.954;5.322;2022-10-13T15:16:11;21.97;;;19.80;;